Time;durP1;ratioP1;P1;durP2;ratioP2;P2;SDS_P1;SDS_P2;PMS_P1;PMS_P2;Temp;Humidity;BMP_temperature;BMP_pressure;BME280_temperature;BME280_humidity;BME280_pressure;Samples;Min_cycle;Max_cycle;Signal;HPM_P1;HPM_P2
2022/12/12 00:01:47;;;;;;;35.17;13.55;;;3.30;99.90;;;;;;5053209;28;20021;-66
2022/12/12 00:04:12;;;;;;;39.72;12.05;;;3.30;99.90;;;;;;5053244;28;20029;-65
2022/12/12 00:06:38;;;;;;;42.72;14.40;;;3.30;99.90;;;;;;5053179;28;20372;-66
2022/12/12 00:09:04;;;;;;;42.63;13.63;;;3.30;99.90;;;;;;5053073;28;20040;-66
2022/12/12 00:11:30;;;;;;;55.15;16.88;;;3.30;99.90;;;;;;5051385;28;20025;-66
2022/12/12 00:13:57;;;;;;;48.22;17.42;;;3.30;99.90;;;;;;5053094;28;20057;-66
2022/12/12 00:16:23;;;;;;;56.65;17.75;;;3.30;99.90;;;;;;5053029;28;20104;-66
2022/12/12 00:18:49;;;;;;;52.35;15.05;;;3.30;99.90;;;;;;5052492;28;20041;-66
2022/12/12 00:21:33;;;;;;;41.65;15.65;;;3.30;99.90;;;;;;5052882;28;20021;-66
2022/12/12 00:23:59;;;;;;;51.42;17.17;;;3.30;99.90;;;;;;5052993;28;20032;-66
2022/12/12 00:26:30;;;;;;;33.83;12.43;;;3.30;87.20;;;;;;5051776;28;20025;-66
2022/12/12 00:28:56;;;;;;;33.15;14.00;;;3.30;63.20;;;;;;5052718;28;20350;-66
2022/12/12 00:31:22;;;;;;;36.70;14.30;;;3.30;30.80;;;;;;5052855;28;20036;-66
2022/12/12 00:33:49;;;;;;;35.80;14.82;;;3.30;10.70;;;;;;5052771;28;20135;-66
2022/12/12 00:36:26;;;;;;;37.75;14.05;;;3.20;1.00;;;;;;5052613;28;20385;-66
2022/12/12 00:38:53;;;;;;;39.80;14.45;;;3.20;1.00;;;;;;5052911;28;20025;-65
2022/12/12 00:41:19;;;;;;;36.58;12.52;;;3.20;1.00;;;;;;5052430;28;20029;-65
2022/12/12 00:43:45;;;;;;;37.13;13.55;;;3.20;1.00;;;;;;5052449;28;20025;-66
2022/12/12 00:46:16;;;;;;;45.65;13.88;;;3.10;99.90;;;;;;5052572;28;20024;-64
2022/12/12 00:48:42;;;;;;;45.90;14.25;;;3.20;99.90;;;;;;5052386;28;20079;-65
2022/12/12 00:51:13;;;;;;;41.90;14.40;;;3.20;99.90;;;;;;5052469;28;20029;-64
2022/12/12 00:53:39;;;;;;;37.95;13.18;;;3.20;99.90;;;;;;5052217;28;20036;-66
2022/12/12 00:56:05;;;;;;;43.10;14.63;;;3.20;99.90;;;;;;5052161;28;20025;-65
2022/12/12 00:58:31;;;;;;;40.28;15.18;;;3.20;99.90;;;;;;5052297;28;20024;-64
2022/12/12 01:01:05;;;;;;;39.72;14.73;;;3.20;99.90;;;;;;5052126;28;20024;-66
2022/12/12 01:03:32;;;;;;;45.60;15.00;;;3.30;99.90;;;;;;5052220;28;20596;-64
2022/12/12 01:05:58;;;;;;;38.85;13.35;;;3.30;99.90;;;;;;5052037;28;20428;-65
2022/12/12 01:08:24;;;;;;;33.50;11.75;;;3.30;99.90;;;;;;5051457;28;20029;-64
2022/12/12 01:10:49;;;;;;;36.65;11.52;;;3.30;99.90;;;;;;5051086;28;20075;-65
2022/12/12 01:13:15;;;;;;;31.42;10.02;;;3.30;99.90;;;;;;5051908;28;20024;-65
2022/12/12 01:15:41;;;;;;;34.28;10.63;;;3.20;99.90;;;;;;5051757;28;20554;-64
2022/12/12 01:18:06;;;;;;;32.08;10.38;;;3.20;99.90;;;;;;5050347;28;20048;-65
2022/12/12 01:20:32;;;;;;;39.15;11.13;;;3.30;99.90;;;;;;5052061;28;20060;-65
2022/12/12 01:22:58;;;;;;;26.25;8.93;;;3.30;99.90;;;;;;5052429;28;20025;-64
2022/12/12 01:25:24;;;;;;;38.60;12.73;;;3.30;99.90;;;;;;5050076;28;20392;-64
2022/12/12 01:27:50;;;;;;;42.83;13.80;;;3.30;99.90;;;;;;5071935;28;20099;-64
2022/12/12 01:30:20;;;;;;;43.45;13.10;;;3.30;99.90;;;;;;5061246;28;20524;-64
2022/12/12 01:32:46;;;;;;;40.08;12.65;;;3.30;99.90;;;;;;5051898;28;20477;-64
2022/12/12 01:35:12;;;;;;;42.00;13.75;;;3.30;99.90;;;;;;5052795;28;20103;-64
2022/12/12 01:37:40;;;;;;;45.08;14.00;;;3.30;99.90;;;;;;5071328;28;20470;-65
2022/12/12 01:40:14;;;;;;;41.72;13.48;;;3.30;99.90;;;;;;5071448;28;20024;-63
2022/12/12 01:42:40;;;;;;;49.25;14.98;;;3.30;99.90;;;;;;5071090;28;20059;-64
2022/12/12 01:45:07;;;;;;;56.22;15.38;;;3.30;99.90;;;;;;5071598;28;20024;-64
2022/12/12 01:47:32;;;;;;;52.58;15.63;;;3.30;99.90;;;;;;5071440;28;20103;-65
2022/12/12 01:50:07;;;;;;;57.22;16.38;;;3.30;81.30;;;;;;5070949;28;20519;-64
2022/12/12 01:52:42;;;;;;;39.65;13.45;;;3.30;85.30;;;;;;5071021;28;20020;-65
2022/12/12 01:55:15;;;;;;;40.55;13.63;;;3.30;90.10;;;;;;5071338;28;20024;-64
2022/12/12 01:57:45;;;;;;;39.88;15.07;;;3.30;59.80;;;;;;5071252;28;20019;-65
2022/12/12 02:00:12;;;;;;;45.35;14.35;;;3.30;33.60;;;;;;5068355;28;20028;-64
2022/12/12 02:02:40;;;;;;;40.33;12.63;;;3.30;8.20;;;;;;5050918;28;20029;-65
2022/12/12 02:05:15;;;;;;;39.40;13.15;;;3.30;1.00;;;;;;5051222;28;20027;-64
2022/12/12 02:07:41;;;;;;;43.30;12.82;;;3.30;1.00;;;;;;5051097;28;20025;-65
2022/12/12 02:10:07;;;;;;;45.05;14.60;;;3.40;1.00;;;;;;5049521;28;20033;-64
2022/12/12 02:12:33;;;;;;;29.90;11.55;;;3.30;1.00;;;;;;5051167;28;20071;-63
2022/12/12 02:14:59;;;;;;;34.50;12.38;;;3.30;99.90;;;;;;5051049;28;20549;-65
2022/12/12 02:18:00;;;;;;;30.48;11.43;;;3.30;99.90;;;;;;5050839;28;20043;-64
2022/12/12 02:21:09;;;;;;;33.33;12.43;;;3.30;99.90;;;;;;5050931;28;20029;-64
2022/12/12 02:23:44;;;;;;;35.75;13.32;;;3.30;99.90;;;;;;5050944;28;20029;-65
2022/12/12 02:26:13;;;;;;;35.35;12.75;;;3.20;99.90;;;;;;5050571;28;20028;-64
2022/12/12 02:29:08;;;;;;;30.23;12.43;;;3.20;99.90;;;;;;5050732;28;20061;-64
2022/12/12 02:31:42;;;;;;;37.83;12.70;;;3.20;99.90;;;;;;5049765;28;20029;-63
2022/12/12 02:34:28;;;;;;;41.58;12.00;;;3.20;99.90;;;;;;5050956;28;20029;-64
2022/12/12 02:37:19;;;;;;;25.65;10.43;;;3.20;99.90;;;;;;5051071;28;20035;-63
2022/12/12 02:40:09;;;;;;;26.60;10.23;;;3.20;99.90;;;;;;5050834;28;20040;-64
2022/12/12 02:42:56;;;;;;;19.80;8.43;;;3.20;60.10;;;;;;5050707;28;20082;-64
2022/12/12 02:45:40;;;;;;;25.95;10.30;;;3.20;1.00;;;;;;5051065;28;20053;-64
2022/12/12 02:48:35;;;;;;;25.90;10.18;;;3.20;1.00;;;;;;5050824;28;20036;-64
2022/12/12 02:51:04;;;;;;;26.08;10.02;;;3.20;1.00;;;;;;5050153;28;20048;-64
2022/12/12 02:53:30;;;;;;;30.00;10.07;;;3.20;1.00;;;;;;5050650;28;20540;-63
2022/12/12 02:56:28;;;;;;;25.05;9.88;;;3.20;1.00;;;;;;5051354;28;20032;-64
2022/12/12 02:58:54;;;;;;;25.55;10.48;;;3.20;99.90;;;;;;5049927;28;20033;-64
2022/12/12 03:01:44;;;;;;;23.42;9.25;;;3.20;99.90;;;;;;5050601;28;20473;-64
2022/12/12 03:10:00;;;;;;;27.73;10.40;;;3.20;99.90;;;;;;5050418;28;20039;-63
2022/12/12 03:12:47;;;;;;;28.90;11.23;;;3.20;99.90;;;;;;5050733;28;20021;-63
2022/12/12 03:15:19;;;;;;;28.85;10.13;;;3.20;99.90;;;;;;5050370;28;20025;-63
2022/12/12 03:17:55;;;;;;;30.48;10.48;;;3.20;99.90;;;;;;5051241;28;20092;-63
2022/12/12 03:20:48;;;;;;;31.88;12.38;;;3.20;99.90;;;;;;5054935;28;20025;-63
2022/12/12 03:23:20;;;;;;;33.45;11.18;;;3.20;99.90;;;;;;5055345;28;20029;-63
2022/12/12 03:25:50;;;;;;;28.88;11.25;;;3.20;99.90;;;;;;5052326;28;20136;-64
2022/12/12 03:28:29;;;;;;;33.13;12.10;;;3.20;99.90;;;;;;5053097;28;20056;-63
2022/12/12 03:30:59;;;;;;;41.17;12.68;;;3.10;99.90;;;;;;5051156;28;20067;-64
2022/12/12 03:33:37;;;;;;;30.40;11.82;;;3.10;99.90;;;;;;5052884;28;20495;-63
2022/12/12 03:36:11;;;;;;;36.78;12.40;;;3.10;99.90;;;;;;5053810;28;20071;-63
2022/12/12 03:38:41;;;;;;;34.13;12.48;;;3.10;99.90;;;;;;5053803;28;20025;-63
2022/12/12 03:41:14;;;;;;;42.70;12.77;;;3.10;99.90;;;;;;5053701;28;20024;-63
2022/12/12 03:43:48;;;;;;;33.80;12.45;;;3.10;99.90;;;;;;5053561;28;20029;-63
2022/12/12 03:46:23;;;;;;;34.00;12.70;;;3.10;99.90;;;;;;5053829;28;20025;-63
2022/12/12 03:48:53;;;;;;;31.02;10.77;;;3.10;99.90;;;;;;5053369;28;20025;-63
2022/12/12 03:51:29;;;;;;;31.13;12.57;;;3.10;99.90;;;;;;5053694;28;20074;-63
2022/12/12 03:54:09;;;;;;;32.88;12.55;;;3.10;99.90;;;;;;5053580;28;20428;-63
2022/12/12 03:56:57;;;;;;;29.45;11.20;;;3.00;99.90;;;;;;5053483;28;20377;-62
2022/12/12 03:59:25;;;;;;;28.13;11.95;;;3.00;99.90;;;;;;5053460;28;20473;-62
2022/12/12 04:02:03;;;;;;;25.70;11.25;;;3.00;99.90;;;;;;5053293;28;20041;-62
2022/12/12 04:04:50;;;;;;;32.03;12.32;;;3.00;99.90;;;;;;5053277;28;20082;-62
2022/12/12 04:07:22;;;;;;;33.67;11.82;;;3.00;99.90;;;;;;5053385;28;20025;-63
2022/12/12 04:13:02;;;;;;;32.88;12.93;;;3.00;99.90;;;;;;5051633;28;20044;-61
2022/12/12 04:16:03;;;;;;;34.58;13.27;;;3.00;99.90;;;;;;5043252;28;20117;-62
2022/12/12 04:18:36;;;;;;;34.05;12.57;;;3.00;99.90;;;;;;5052062;28;20407;-63
2022/12/12 04:24:34;;;;;;;31.10;12.63;;;3.00;99.90;;;;;;5052870;28;20032;-62
2022/12/12 04:27:09;;;;;;;30.08;12.20;;;3.00;99.90;;;;;;5051205;28;20025;-62
2022/12/12 04:29:41;;;;;;;30.33;11.50;;;3.00;99.90;;;;;;5052771;28;20029;-63
2022/12/12 04:32:16;;;;;;;32.80;12.68;;;3.00;99.90;;;;;;5052849;28;20377;-62
2022/12/12 04:34:58;;;;;;;24.88;11.57;;;3.00;99.90;;;;;;5052698;28;20637;-63
2022/12/12 04:37:32;;;;;;;25.45;10.30;;;3.00;99.90;;;;;;5052616;28;20029;-63
2022/12/12 04:40:01;;;;;;;31.50;10.40;;;3.00;99.90;;;;;;5052761;28;20070;-62
2022/12/12 04:42:32;;;;;;;26.80;10.45;;;3.00;99.90;;;;;;5052742;28;20056;-61
2022/12/12 04:45:06;;;;;;;29.08;11.18;;;3.00;99.90;;;;;;5052381;28;20055;-63
2022/12/12 04:47:35;;;;;;;31.45;11.18;;;2.90;99.90;;;;;;5052704;28;20033;-62
2022/12/12 04:50:02;;;;;;;23.05;10.50;;;2.90;99.90;;;;;;5051103;28;20493;-62
2022/12/12 04:52:31;;;;;;;25.40;9.90;;;3.00;99.90;;;;;;5052654;28;20076;-63
2022/12/12 04:55:16;;;;;;;24.05;11.13;;;2.90;99.90;;;;;;5052301;28;20478;-63
2022/12/12 04:57:46;;;;;;;22.70;9.10;;;2.90;99.90;;;;;;5052276;28;20028;-62
2022/12/12 05:00:13;;;;;;;23.52;9.95;;;2.90;99.90;;;;;;5052165;28;20025;-62
2022/12/12 05:03:03;;;;;;;22.70;10.98;;;2.90;99.90;;;;;;5052074;28;20428;-63
2022/12/12 05:05:35;;;;;;;22.27;9.48;;;2.90;99.90;;;;;;5052157;28;20048;-62
2022/12/12 05:08:20;;;;;;;20.83;9.52;;;2.90;99.90;;;;;;5052280;28;20194;-61
2022/12/12 05:10:49;;;;;;;21.02;10.20;;;2.90;99.90;;;;;;5051986;28;20074;-62
2022/12/12 05:13:21;;;;;;;24.33;9.70;;;2.90;99.90;;;;;;5052102;28;20049;-63
2022/12/12 05:15:49;;;;;;;21.67;9.82;;;2.90;99.90;;;;;;5052248;28;20017;-62
2022/12/12 05:18:15;;;;;;;24.77;10.32;;;2.90;99.90;;;;;;5050545;28;20048;-62
2022/12/12 05:20:41;;;;;;;27.42;10.98;;;2.90;99.90;;;;;;5051950;28;20155;-62
2022/12/12 05:23:07;;;;;;;23.17;10.07;;;2.90;99.90;;;;;;5051858;28;20104;-62
2022/12/12 05:25:32;;;;;;;27.98;10.00;;;2.90;99.90;;;;;;5051647;28;20465;-62
2022/12/12 05:27:58;;;;;;;26.15;10.18;;;2.80;99.90;;;;;;5050539;28;20420;-62
2022/12/12 05:30:24;;;;;;;26.27;10.77;;;2.90;99.90;;;;;;5051639;28;20041;-62
2022/12/12 05:32:50;;;;;;;30.33;10.90;;;2.80;99.90;;;;;;5051593;28;20032;-62
2022/12/12 05:35:16;;;;;;;22.98;10.07;;;2.80;99.90;;;;;;5050232;28;20112;-62
2022/12/12 05:37:42;;;;;;;31.38;12.52;;;2.80;99.90;;;;;;5051352;28;20028;-61
2022/12/12 05:40:11;;;;;;;25.35;11.10;;;2.80;99.90;;;;;;5051519;28;20461;-60
2022/12/12 05:42:37;;;;;;;25.48;10.70;;;2.80;99.90;;;;;;5051857;28;20025;-61
2022/12/12 05:45:04;;;;;;;27.48;11.75;;;2.80;99.90;;;;;;5051477;28;20075;-62
2022/12/12 05:47:29;;;;;;;26.73;10.88;;;2.90;99.90;;;;;;5051654;28;20099;-63
2022/12/12 05:49:55;;;;;;;26.65;11.52;;;2.90;99.90;;;;;;5051391;28;20469;-62
2022/12/12 05:52:21;;;;;;;27.38;11.73;;;2.90;99.90;;;;;;5051574;28;20078;-62
2022/12/12 05:54:47;;;;;;;23.35;10.07;;;2.90;99.90;;;;;;5051240;28;20029;-62
2022/12/12 05:57:12;;;;;;;30.35;10.90;;;2.90;99.90;;;;;;5051496;28;20495;-63
2022/12/12 05:59:38;;;;;;;29.35;11.05;;;2.90;99.90;;;;;;5051639;28;20039;-61
2022/12/12 06:02:04;;;;;;;23.55;10.25;;;2.90;99.90;;;;;;5051468;28;20025;-62
2022/12/12 06:04:29;;;;;;;27.63;10.75;;;2.80;99.90;;;;;;5051443;28;20059;-62
2022/12/12 06:06:55;;;;;;;25.33;10.00;;;2.90;99.90;;;;;;5051464;28;20032;-62
2022/12/12 06:09:21;;;;;;;30.92;11.23;;;2.90;99.90;;;;;;5051188;28;20493;-62
2022/12/12 06:11:46;;;;;;;32.22;11.93;;;2.90;1.00;;;;;;5049762;28;20063;-62
2022/12/12 06:14:12;;;;;;;28.88;11.30;;;2.90;1.00;;;;;;5051476;28;20492;-62
2022/12/12 06:16:38;;;;;;;27.70;11.85;;;2.90;1.00;;;;;;5050076;28;20469;-62
2022/12/12 06:19:04;;;;;;;30.52;10.55;;;2.90;1.00;;;;;;5051064;28;20106;-62
2022/12/12 06:21:30;;;;;;;25.95;10.57;;;2.90;1.00;;;;;;5051179;28;20056;-62
2022/12/12 06:23:55;;;;;;;24.40;9.20;;;2.90;1.00;;;;;;5050994;28;20063;-62
2022/12/12 06:26:21;;;;;;;23.80;9.95;;;2.90;99.90;;;;;;5051293;28;20435;-62
2022/12/12 06:28:47;;;;;;;22.25;10.13;;;2.90;99.90;;;;;;5051072;28;20033;-62
2022/12/12 06:31:14;;;;;;;25.27;11.45;;;2.90;99.90;;;;;;5050841;28;20116;-61
2022/12/12 06:33:42;;;;;;;21.10;9.60;;;2.80;99.90;;;;;;5049788;28;20366;-61
2022/12/12 06:36:11;;;;;;;21.85;8.90;;;2.80;99.90;;;;;;5050923;28;20028;-62
2022/12/12 06:38:38;;;;;;;27.23;10.90;;;2.80;99.90;;;;;;5047487;28;20079;-61
2022/12/12 06:41:09;;;;;;;25.88;10.45;;;2.80;99.90;;;;;;5050702;28;20035;-61
2022/12/12 06:43:35;;;;;;;20.73;10.15;;;2.80;99.90;;;;;;5050765;28;20017;-60
2022/12/12 06:46:03;;;;;;;22.05;8.98;;;2.80;99.90;;;;;;5050949;28;20028;-62
2022/12/12 06:48:30;;;;;;;21.92;9.48;;;2.80;99.90;;;;;;5049631;28;20063;-61
2022/12/12 06:50:56;;;;;;;21.23;9.32;;;2.80;99.90;;;;;;5050357;28;20033;-61
2022/12/12 06:53:22;;;;;;;23.50;11.05;;;2.90;99.90;;;;;;5053383;28;20025;-62
2022/12/12 06:55:47;;;;;;;28.35;11.50;;;2.80;99.90;;;;;;5050988;28;20021;-61
2022/12/12 06:58:13;;;;;;;28.95;11.18;;;2.80;99.90;;;;;;5054328;28;20060;-61
2022/12/12 07:00:40;;;;;;;26.08;10.63;;;2.80;99.90;;;;;;5070640;28;20469;-61
2022/12/12 07:03:06;;;;;;;26.10;10.73;;;2.80;99.90;;;;;;5066704;28;20029;-61
2022/12/12 07:05:32;;;;;;;29.40;11.60;;;2.90;99.90;;;;;;5067256;28;20054;-62
2022/12/12 07:08:01;;;;;;;27.35;12.05;;;2.80;1.00;;;;;;5072532;28;20469;-61
2022/12/12 07:10:28;;;;;;;28.38;11.95;;;2.90;1.00;;;;;;5074250;28;20036;-62
2022/12/12 07:12:54;;;;;;;25.80;10.48;;;2.90;1.00;;;;;;5074296;28;20093;-61
2022/12/12 07:15:20;;;;;;;27.17;12.00;;;2.90;1.00;;;;;;5071617;28;20053;-62
2022/12/12 07:17:45;;;;;;;26.58;11.25;;;2.90;1.00;;;;;;5064276;28;20067;-61
2022/12/12 07:20:11;;;;;;;30.73;12.27;;;2.90;1.00;;;;;;5050883;28;20021;-62
2022/12/12 07:22:37;;;;;;;30.92;12.82;;;2.90;1.00;;;;;;5053008;28;20574;-61
2022/12/12 07:25:03;;;;;;;27.38;11.52;;;2.90;1.00;;;;;;5053175;28;20031;-61
2022/12/12 07:27:29;;;;;;;26.40;9.98;;;2.90;99.90;;;;;;5071488;28;20031;-62
2022/12/12 07:29:54;;;;;;;25.35;10.32;;;2.90;99.90;;;;;;5052968;28;20036;-61
2022/12/12 07:32:20;;;;;;;29.08;11.70;;;2.90;99.90;;;;;;5053278;28;20017;-60
2022/12/12 07:34:46;;;;;;;28.10;12.50;;;2.90;99.90;;;;;;5063689;28;20032;-61
2022/12/12 07:37:11;;;;;;;23.92;10.82;;;2.90;99.90;;;;;;5066545;28;20025;-62
2022/12/12 07:39:37;;;;;;;28.98;11.40;;;2.90;99.90;;;;;;5053408;28;20373;-62
2022/12/12 07:42:03;;;;;;;24.00;11.23;;;2.90;99.90;;;;;;5054831;28;20534;-62
2022/12/12 07:44:28;;;;;;;27.73;10.70;;;2.90;99.90;;;;;;5053021;28;20028;-62
2022/12/12 07:46:57;;;;;;;27.20;11.68;;;2.90;99.90;;;;;;5051643;28;20436;-62
2022/12/12 07:49:23;;;;;;;28.55;11.10;;;2.90;1.00;;;;;;5060279;28;20086;-65
2022/12/12 07:51:49;;;;;;;27.30;11.07;;;2.90;1.00;;;;;;5052287;28;20428;-62
2022/12/12 07:54:15;;;;;;;28.15;11.32;;;2.90;1.00;;;;;;5063728;28;20033;-63
2022/12/12 07:56:41;;;;;;;26.73;11.50;;;2.90;1.00;;;;;;5062535;28;20164;-68
2022/12/12 07:59:06;;;;;;;24.25;10.15;;;2.90;1.00;;;;;;5072244;28;20055;-60
2022/12/12 08:01:32;;;;;;;31.67;11.68;;;3.00;1.00;;;;;;5057255;28;20021;-63
2022/12/12 08:03:58;;;;;;;31.08;11.85;;;2.90;1.00;;;;;;5059078;28;20391;-62
2022/12/12 08:06:24;;;;;;;24.00;10.43;;;2.90;1.00;;;;;;5059666;28;20039;-62
2022/12/12 08:08:51;;;;;;;30.33;11.88;;;2.90;1.00;;;;;;5051954;28;20029;-63
2022/12/12 08:11:21;;;;;;;28.58;11.15;;;2.90;1.00;;;;;;5056379;28;20091;-63
2022/12/12 08:13:47;;;;;;;22.98;10.45;;;2.90;1.00;;;;;;5053175;28;20070;-63
2022/12/12 08:16:16;;;;;;;26.67;10.35;;;3.00;1.00;;;;;;5052948;28;20033;-63
2022/12/12 08:18:41;;;;;;;27.25;10.98;;;2.90;1.00;;;;;;5055846;28;20372;-63
2022/12/12 08:21:09;;;;;;;21.90;10.40;;;3.00;1.00;;;;;;5072525;28;20095;-63
2022/12/12 08:23:36;;;;;;;28.67;11.30;;;3.00;1.00;;;;;;5087500;28;20043;-63
2022/12/12 08:26:04;;;;;;;27.55;10.68;;;3.00;1.00;;;;;;5072822;28;20031;-62
2022/12/12 08:28:30;;;;;;;28.27;10.20;;;3.00;99.90;;;;;;5070620;28;20033;-63
2022/12/12 08:30:55;;;;;;;25.05;9.93;;;3.10;99.90;;;;;;5062045;28;20029;-63
2022/12/12 08:33:21;;;;;;;26.63;10.43;;;3.10;99.90;;;;;;5059829;28;20033;-63
2022/12/12 08:35:47;;;;;;;22.42;9.73;;;3.10;99.90;;;;;;5037416;28;20108;-63
2022/12/12 08:38:13;;;;;;;28.40;11.35;;;3.10;99.90;;;;;;5052893;28;20477;-64
2022/12/12 08:40:40;;;;;;;23.55;9.23;;;3.10;99.90;;;;;;5052754;28;20040;-63
2022/12/12 08:43:06;;;;;;;23.42;9.90;;;3.10;99.90;;;;;;5052679;28;20493;-62
2022/12/12 08:45:32;;;;;;;23.42;9.98;;;3.10;99.90;;;;;;5051723;28;20072;-62
2022/12/12 08:47:58;;;;;;;29.92;12.82;;;3.10;99.90;;;;;;5052799;28;20029;-62
2022/12/12 08:50:23;;;;;;;24.55;9.93;;;3.20;99.90;;;;;;5052671;28;20090;-63
2022/12/12 08:52:49;;;;;;;21.88;10.15;;;3.20;99.90;;;;;;5052704;28;20017;-62
2022/12/12 08:55:15;;;;;;;22.40;10.60;;;3.30;99.90;;;;;;5053362;28;20103;-63
2022/12/12 08:57:40;;;;;;;22.58;9.93;;;3.30;99.90;;;;;;5055114;28;20106;-63
2022/12/12 09:00:07;;;;;;;27.77;11.32;;;3.30;99.90;;;;;;5058420;28;20023;-63
2022/12/12 09:02:33;;;;;;;26.88;12.30;;;3.20;44.60;;;;;;5058503;28;20037;-63
2022/12/12 09:04:58;;;;;;;22.77;10.18;;;3.30;26.80;;;;;;5055244;28;20023;-63
2022/12/12 09:07:24;;;;;;;29.73;11.32;;;3.30;22.00;;;;;;5057404;28;20027;-63
2022/12/12 09:09:50;;;;;;;25.13;10.73;;;3.40;3.10;;;;;;5053481;28;20310;-63
2022/12/12 09:12:15;;;;;;;30.85;11.13;;;3.40;1.00;;;;;;5052226;28;20466;-62
2022/12/12 09:14:41;;;;;;;28.90;10.70;;;3.40;1.00;;;;;;5051932;28;20496;-63
2022/12/12 09:17:06;;;;;;;26.92;10.88;;;3.40;1.00;;;;;;5052206;28;20021;-63
2022/12/12 09:19:32;;;;;;;26.65;10.85;;;3.50;1.00;;;;;;5051982;28;20064;-63
2022/12/12 09:21:58;;;;;;;24.13;9.93;;;3.50;1.00;;;;;;5051916;28;20021;-63
2022/12/12 09:24:24;;;;;;;23.92;10.35;;;3.50;1.00;;;;;;5051984;28;20057;-63
2022/12/12 09:26:50;;;;;;;26.40;10.48;;;3.60;1.00;;;;;;5051795;28;20029;-63
2022/12/12 09:29:16;;;;;;;29.25;11.25;;;3.60;1.00;;;;;;5050914;28;20040;-63
2022/12/12 09:31:42;;;;;;;23.85;10.15;;;3.60;1.00;;;;;;5051360;28;20029;-63
2022/12/12 09:34:08;;;;;;;26.00;10.45;;;3.70;1.00;;;;;;5051902;28;20021;-63
2022/12/12 09:36:34;;;;;;;25.20;10.63;;;3.70;1.00;;;;;;5051713;28;20507;-63
2022/12/12 09:39:00;;;;;;;23.40;10.50;;;3.70;1.00;;;;;;5051528;28;20017;-63
2022/12/12 09:41:29;;;;;;;25.05;10.88;;;3.70;99.90;;;;;;5051528;28;20025;-64
2022/12/12 09:44:06;;;;;;;27.98;10.75;;;3.60;99.90;;;;;;5051425;28;20485;-62
2022/12/12 09:46:43;;;;;;;27.40;9.75;;;3.60;99.90;;;;;;5050190;28;20028;-64
2022/12/12 09:49:27;;;;;;;22.55;10.95;;;3.60;99.90;;;;;;5051427;28;20021;-63
2022/12/12 09:51:54;;;;;;;25.40;9.85;;;3.60;99.90;;;;;;5051308;28;20029;-64
2022/12/12 09:54:22;;;;;;;21.13;10.32;;;3.60;99.90;;;;;;5051139;28;20145;-63
2022/12/12 09:57:02;;;;;;;25.25;10.57;;;3.60;99.90;;;;;;5050990;28;20104;-63
2022/12/12 09:59:45;;;;;;;23.63;10.60;;;3.60;99.90;;;;;;5051552;28;20032;-63
2022/12/12 10:02:35;;;;;;;22.05;11.23;;;3.60;99.90;;;;;;5051135;28;20036;-63
2022/12/12 10:05:24;;;;;;;24.92;10.73;;;3.60;99.90;;;;;;5051254;28;20067;-62
2022/12/12 10:08:14;;;;;;;26.85;10.48;;;3.70;99.90;;;;;;5049405;28;20041;-64
2022/12/12 10:10:47;;;;;;;24.83;10.82;;;3.80;99.90;;;;;;5051156;28;20033;-63
2022/12/12 10:13:23;;;;;;;27.05;11.93;;;3.90;99.90;;;;;;5051372;28;20060;-63
2022/12/12 10:15:52;;;;;;;26.85;10.93;;;3.90;99.90;;;;;;5051663;28;20043;-63
2022/12/12 10:18:22;;;;;;;24.55;11.15;;;3.90;99.90;;;;;;5051740;28;20060;-62
2022/12/12 10:20:51;;;;;;;30.42;13.48;;;3.70;99.90;;;;;;5051549;28;20477;-63
2022/12/12 10:23:47;;;;;;;32.67;13.30;;;3.70;99.90;;;;;;5051436;28;20550;-64
2022/12/12 10:26:27;;;;;;;27.75;12.40;;;3.70;99.90;;;;;;5051797;28;20426;-62
2022/12/12 10:29:15;;;;;;;26.15;12.27;;;3.80;99.90;;;;;;5051061;28;20029;-64
2022/12/12 10:32:09;;;;;;;31.38;13.98;;;4.00;99.90;;;;;;5049585;28;20112;-64
2022/12/12 10:35:12;;;;;;;32.70;12.25;;;4.00;99.90;;;;;;5051231;28;20473;-63
2022/12/12 10:38:05;;;;;;;29.80;12.95;;;3.90;99.90;;;;;;5061230;28;20076;-63
2022/12/12 10:40:40;;;;;;;30.17;13.45;;;3.90;99.90;;;;;;5031038;28;20025;-63
2022/12/12 10:43:51;;;;;;;30.30;13.98;;;4.00;99.90;;;;;;5035074;28;20029;-61
2022/12/12 10:46:37;;;;;;;28.40;12.82;;;4.10;99.90;;;;;;5029536;28;20514;-61
2022/12/12 10:49:14;;;;;;;30.13;12.65;;;4.20;99.90;;;;;;5034867;28;20040;-62
2022/12/12 10:51:42;;;;;;;27.77;12.93;;;4.30;99.90;;;;;;5052438;28;20028;-61
2022/12/12 10:54:20;;;;;;;31.90;12.15;;;4.30;99.90;;;;;;5053348;28;20497;-61
2022/12/12 10:57:10;;;;;;;25.65;12.65;;;4.50;99.90;;;;;;5054614;28;20377;-60
2022/12/12 10:59:44;;;;;;;33.03;12.43;;;4.60;99.90;;;;;;5054696;28;20025;-61
2022/12/12 11:02:33;;;;;;;33.15;13.23;;;4.60;99.90;;;;;;5054664;28;20481;-61
2022/12/12 11:05:09;;;;;;;27.95;12.38;;;4.70;99.90;;;;;;5054439;28;20032;-61
2022/12/12 11:07:39;;;;;;;30.33;12.43;;;4.70;99.90;;;;;;5054573;28;20027;-61
2022/12/12 11:10:31;;;;;;;86.35;71.43;;;4.60;99.90;;;;;;5054169;28;20486;-61
2022/12/12 11:13:10;;;;;;;23.73;11.98;;;4.70;99.90;;;;;;5054075;28;20031;-61
2022/12/12 11:16:00;;;;;;;33.17;12.63;;;4.70;99.90;;;;;;5060608;28;20064;-62
2022/12/12 11:18:27;;;;;;;24.05;11.43;;;4.80;99.90;;;;;;5053929;28;20091;-61
2022/12/12 11:21:11;;;;;;;27.50;12.32;;;4.80;99.90;;;;;;5052589;28;20500;-61
2022/12/12 11:23:49;;;;;;;32.30;12.75;;;4.80;99.90;;;;;;5054130;28;20488;-60
2022/12/12 11:26:17;;;;;;;27.85;13.90;;;4.80;99.90;;;;;;5054039;28;20412;-61
2022/12/12 11:28:50;;;;;;;32.97;13.18;;;4.80;99.90;;;;;;5053776;28;20029;-61
2022/12/12 11:31:16;;;;;;;32.22;14.00;;;4.70;99.90;;;;;;5061135;28;20068;-61
2022/12/12 11:33:55;;;;;;;28.33;13.65;;;4.60;99.90;;;;;;5043335;28;20029;-60
2022/12/12 11:36:27;;;;;;;31.95;12.82;;;4.50;99.90;;;;;;5054395;28;20449;-62
2022/12/12 11:38:56;;;;;;;29.30;11.93;;;4.30;99.90;;;;;;5055525;28;20163;-60
2022/12/12 11:41:22;;;;;;;29.67;13.52;;;4.30;99.90;;;;;;5055174;28;20071;-61
2022/12/12 11:43:48;;;;;;;31.25;13.43;;;4.20;99.90;;;;;;5071121;28;20025;-61
2022/12/12 11:46:18;;;;;;;32.22;14.52;;;4.10;99.90;;;;;;5074102;28;20058;-60
2022/12/12 11:48:46;;;;;;;34.72;15.20;;;4.10;99.90;;;;;;5056028;28;20463;-60
2022/12/12 11:51:28;;;;;;;34.30;14.07;;;4.10;99.90;;;;;;5055466;28;20033;-61
2022/12/12 11:53:54;;;;;;;;;;;4.10;99.90;;;;;;5048135;28;20025;-62
2022/12/12 11:56:53;;;;;;;32.47;13.77;;;4.00;99.90;;;;;;5053420;28;20000;-62
2022/12/12 11:59:25;;;;;;;31.35;13.05;;;3.90;99.90;;;;;;5047559;28;20112;-61
2022/12/12 12:01:57;;;;;;;32.05;13.35;;;3.90;99.90;;;;;;5053397;28;20021;-62
2022/12/12 12:04:46;;;;;;;34.13;13.77;;;3.90;99.90;;;;;;5053785;28;20116;-61
2022/12/12 12:07:21;;;;;;;27.70;12.63;;;4.00;99.90;;;;;;5053534;28;20089;-62
2022/12/12 12:10:02;;;;;;;30.92;13.13;;;3.90;99.90;;;;;;5050812;28;20036;-62
2022/12/12 12:12:55;;;;;;;29.33;13.40;;;3.90;99.90;;;;;;5044082;28;20034;-61
2022/12/12 12:15:35;;;;;;;27.40;12.48;;;3.80;99.90;;;;;;5048111;28;20028;-61
2022/12/12 12:18:18;;;;;;;27.60;11.98;;;3.80;99.90;;;;;;5052427;28;20116;-61
2022/12/12 12:21:03;;;;;;;28.40;12.73;;;3.80;99.90;;;;;;5058326;28;20024;-60
2022/12/12 12:23:31;;;;;;;31.10;14.00;;;3.70;99.90;;;;;;5042183;28;20099;-62
2022/12/12 12:26:03;;;;;;;29.90;12.32;;;3.70;99.90;;;;;;5069678;28;20021;-61
2022/12/12 12:28:38;;;;;;;;;;;3.60;99.90;;;;;;5065393;28;20035;-59
2022/12/12 12:31:19;;;;;;;35.42;13.57;;;3.60;99.90;;;;;;5055007;28;20316;-61
2022/12/12 12:33:59;;;;;;;28.00;11.63;;;3.70;99.90;;;;;;5053309;28;20025;-61
2022/12/12 12:36:57;;;;;;;32.85;13.70;;;3.60;99.90;;;;;;5053874;28;20152;-61
2022/12/12 12:39:25;;;;;;;28.48;12.52;;;3.60;99.90;;;;;;5039976;28;20072;-61
2022/12/12 12:42:00;;;;;;;35.83;14.98;;;3.70;99.90;;;;;;5051952;28;20389;-61
2022/12/12 12:44:34;;;;;;;29.67;13.48;;;3.70;99.90;;;;;;5052946;28;20056;-61
2022/12/12 12:47:11;;;;;;;38.17;12.73;;;3.80;99.90;;;;;;5053050;28;20025;-61
2022/12/12 12:49:39;;;;;;;33.85;14.07;;;3.90;99.90;;;;;;5047986;28;20086;-63
2022/12/12 12:52:12;;;;;;;31.50;13.40;;;4.00;99.90;;;;;;5038994;28;20248;-61
2022/12/12 12:54:51;;;;;;;35.58;14.30;;;4.20;99.90;;;;;;5047587;28;20021;-60
2022/12/12 12:57:38;;;;;;;35.65;15.07;;;4.30;99.90;;;;;;5049717;28;20025;-62
2022/12/12 13:00:15;;;;;;;39.35;14.85;;;4.20;99.90;;;;;;5046435;28;20083;-62
2022/12/12 13:03:00;;;;;;;35.90;13.38;;;4.20;99.90;;;;;;5041516;28;20369;-63
2022/12/12 13:05:29;;;;;;;37.63;13.57;;;4.20;99.90;;;;;;5032688;28;20033;-60
2022/12/12 13:08:13;;;;;;;36.00;13.55;;;4.20;99.90;;;;;;5056672;28;20071;-61
2022/12/12 13:10:44;;;;;;;31.50;13.27;;;4.20;99.90;;;;;;5072485;28;20122;-62
2022/12/12 13:13:33;;;;;;;35.65;13.63;;;4.10;99.90;;;;;;5055533;28;20032;-61
2022/12/12 13:16:01;;;;;;;36.95;14.35;;;4.10;99.90;;;;;;5052944;28;20025;-60
2022/12/12 13:18:30;;;;;;;36.33;13.93;;;4.20;99.90;;;;;;5050997;28;20045;-62